PWSweather.com
Personal Weather Stations
Station Observations
WD4JKH
Forsyth, GA 31029

Forsyth, GA 31029

Lat: 33.033225, Lon: -83.927995

Elevation: 709

Station Type: Davis Vantage VUE

High Low Average
Temperature 93.6°F34.2°C 73.6°F23.1°C 83.2°F28.4°C
Dew Point 74.1°F23.4°C 69.7°F20.9°C 71.6°F22.0°C
Winds 7.0 mph 11.3 kmh 1.0 mph 1.6 kmh 3.0 mph W4.8 kmh W
Wind Gusts 15.0 mph24.1 kmh 2.0 mph3.2 kmh 8.0 mph12.9 kmh
Humidity 88% 49% 69%
Pressure 29.94 in1013.9 mb 29.86 in1011.2 mb -
Precipitation 0.00 in0.0 mm - -
Hour Temp Dew Point Humidity Winds Wind Gusts Pressure Precip Precip Rate Daily Precip Total
12:03 AM 79.2°F26.2°C 71.9°F22.2°C 78% 2.5 mph W4.0 kmh W 8.0 mph12.9 kmh 29.90 in1012.5 mb 0.00 in0.0 mm 0.00 in0.0 mm 0.00 in0.0 mm
12:08 AM 79.2°F26.2°C 71.9°F22.2°C 78% 3.9 mph W6.3 kmh W 10.0 mph16.1 kmh 29.90 in1012.5 mb 0.00 in0.0 mm 0.00 in0.0 mm 0.00 in0.0 mm
12:13 AM 79.2°F26.2°C 71.9°F22.2°C 78% 2.3 mph WSW3.7 kmh WSW 10.0 mph16.1 kmh 29.89 in1012.2 mb 0.00 in0.0 mm 0.00 in0.0 mm 0.00 in0.0 mm
12:18 AM 79.1°F26.2°C 72.0°F22.2°C 79% 2.8 mph W4.5 kmh W 10.0 mph16.1 kmh 29.89 in1012.2 mb 0.00 in0.0 mm 0.00 in0.0 mm 0.00 in0.0 mm
12:23 AM 79.2°F26.2°C 71.7°F22.1°C 78% 2.3 mph WSW3.7 kmh WSW 10.0 mph16.1 kmh 29.89 in1012.2 mb 0.00 in0.0 mm 0.00 in0.0 mm 0.00 in0.0 mm
12:28 AM 79.1°F26.2°C 72.2°F22.3°C 79% 3.1 mph WSW5.0 kmh WSW 6.0 mph9.7 kmh 29.89 in1012.2 mb 0.00 in0.0 mm 0.00 in0.0 mm 0.00 in0.0 mm
12:33 AM 79.0°F26.1°C 72.1°F22.3°C 79% 1.7 mph WSW2.7 kmh WSW 6.0 mph9.7 kmh 29.88 in1011.9 mb 0.00 in0.0 mm 0.00 in0.0 mm 0.00 in0.0 mm
12:38 AM 79.0°F26.1°C 72.1°F22.3°C 79% 2.3 mph W3.7 kmh W 6.0 mph9.7 kmh 29.88 in1011.9 mb 0.00 in0.0 mm 0.00 in0.0 mm 0.00 in0.0 mm
12:43 AM 79.0°F26.1°C 71.9°F22.2°C 79% 1.5 mph WSW2.4 kmh WSW 6.0 mph9.7 kmh 29.88 in1011.9 mb 0.00 in0.0 mm 0.00 in0.0 mm 0.00 in0.0 mm
12:48 AM 79.0°F26.1°C 72.1°F22.3°C 79% 2.0 mph SW3.2 kmh SW 5.0 mph8.0 kmh 29.89 in1012.2 mb 0.00 in0.0 mm 0.00 in0.0 mm 0.00 in0.0 mm
12:53 AM 78.9°F26.1°C 72.0°F22.2°C 79% 3.1 mph WSW5.0 kmh WSW 6.0 mph9.7 kmh 29.88 in1011.9 mb 0.00 in0.0 mm 0.00 in0.0 mm 0.00 in0.0 mm
12:58 AM 78.8°F26.0°C 71.9°F22.2°C 79% 2.5 mph WSW4.0 kmh WSW 6.0 mph9.7 kmh 29.88 in1011.9 mb 0.00 in0.0 mm 0.00 in0.0 mm 0.00 in0.0 mm
01:03 AM 78.7°F25.9°C 71.8°F22.1°C 79% 2.4 mph SW3.9 kmh SW 6.0 mph9.7 kmh 29.88 in1011.9 mb 0.00 in0.0 mm 0.00 in0.0 mm 0.00 in0.0 mm
01:08 AM 78.6°F25.9°C 71.7°F22.1°C 79% 1.9 mph SW3.1 kmh SW 6.0 mph9.7 kmh 29.88 in1011.9 mb 0.00 in0.0 mm 0.00 in0.0 mm 0.00 in0.0 mm
01:12 AM 78.3°F25.7°C 71.7°F22.1°C 80% 2.8 mph WSW4.5 kmh WSW 6.0 mph9.7 kmh 29.88 in1011.9 mb 0.00 in0.0 mm 0.00 in0.0 mm 0.00 in0.0 mm
01:17 AM 78.1°F25.6°C 71.5°F21.9°C 80% 2.4 mph W3.9 kmh W 6.0 mph9.7 kmh 29.88 in1011.9 mb 0.00 in0.0 mm 0.00 in0.0 mm 0.00 in0.0 mm
01:22 AM 78.1°F25.6°C 71.1°F21.7°C 79% 1.5 mph WSW2.4 kmh WSW 6.0 mph9.7 kmh 29.87 in1011.5 mb 0.00 in0.0 mm 0.00 in0.0 mm 0.00 in0.0 mm
01:27 AM 78.0°F25.6°C 71.0°F21.7°C 79% 2.0 mph WSW3.2 kmh WSW 6.0 mph9.7 kmh 29.88 in1011.9 mb 0.00 in0.0 mm 0.00 in0.0 mm 0.00 in0.0 mm
01:32 AM 77.9°F25.5°C 71.3°F21.8°C 80% 2.1 mph W3.4 kmh W 5.0 mph8.0 kmh 29.88 in1011.9 mb 0.00 in0.0 mm 0.00 in0.0 mm 0.00 in0.0 mm
01:37 AM 77.8°F25.4°C 71.2°F21.8°C 80% 2.0 mph WSW3.2 kmh WSW 6.0 mph9.7 kmh 29.88 in1011.9 mb 0.00 in0.0 mm 0.00 in0.0 mm 0.00 in0.0 mm
01:42 AM 77.7°F25.4°C 71.5°F21.9°C 81% 1.9 mph WSW3.1 kmh WSW 6.0 mph9.7 kmh 29.88 in1011.9 mb 0.00 in0.0 mm 0.00 in0.0 mm 0.00 in0.0 mm
01:47 AM 77.8°F25.4°C 71.2°F21.8°C 80% 2.3 mph WSW3.7 kmh WSW 8.0 mph12.9 kmh 29.88 in1011.9 mb 0.00 in0.0 mm 0.00 in0.0 mm 0.00 in0.0 mm
01:52 AM 78.0°F25.6°C 71.3°F21.8°C 80% 1.8 mph WSW2.9 kmh WSW 9.0 mph14.5 kmh 29.88 in1011.9 mb 0.00 in0.0 mm 0.00 in0.0 mm 0.00 in0.0 mm
01:57 AM 77.9°F25.5°C 71.3°F21.8°C 80% 2.2 mph SW3.5 kmh SW 9.0 mph14.5 kmh 29.88 in1011.9 mb 0.00 in0.0 mm 0.00 in0.0 mm 0.00 in0.0 mm
02:02 AM 77.7°F25.4°C 71.1°F21.7°C 80% 1.8 mph WSW2.9 kmh WSW 9.0 mph14.5 kmh 29.87 in1011.5 mb 0.00 in0.0 mm 0.00 in0.0 mm 0.00 in0.0 mm
02:07 AM 77.6°F25.3°C 70.9°F21.6°C 80% 3.0 mph SW4.8 kmh SW 9.0 mph14.5 kmh 29.87 in1011.5 mb 0.00 in0.0 mm 0.00 in0.0 mm 0.00 in0.0 mm
02:12 AM 77.5°F25.3°C 70.9°F21.6°C 80% 2.2 mph SW3.5 kmh SW 6.0 mph9.7 kmh 29.87 in1011.5 mb 0.00 in0.0 mm 0.00 in0.0 mm 0.00 in0.0 mm
02:17 AM 77.5°F25.3°C 70.9°F21.6°C 80% 1.1 mph SW1.8 kmh SW 6.0 mph9.7 kmh 29.87 in1011.5 mb 0.00 in0.0 mm 0.00 in0.0 mm 0.00 in0.0 mm
02:22 AM 77.5°F25.3°C 70.8°F21.6°C 80% 1.1 mph WSW1.8 kmh WSW 6.0 mph9.7 kmh 29.88 in1011.9 mb 0.00 in0.0 mm 0.00 in0.0 mm 0.00 in0.0 mm
02:27 AM 77.5°F25.3°C 70.9°F21.6°C 80% 1.2 mph SW1.9 kmh SW 6.0 mph9.7 kmh 29.88 in1011.9 mb 0.00 in0.0 mm 0.00 in0.0 mm 0.00 in0.0 mm
02:32 AM 77.5°F25.3°C 70.9°F21.6°C 80% 2.0 mph W3.2 kmh W 6.0 mph9.7 kmh 29.88 in1011.9 mb 0.00 in0.0 mm 0.00 in0.0 mm 0.00 in0.0 mm
02:37 AM 77.6°F25.3°C 70.7°F21.5°C 79% 2.1 mph WSW3.4 kmh WSW 6.0 mph9.7 kmh 29.88 in1011.9 mb 0.00 in0.0 mm 0.00 in0.0 mm 0.00 in0.0 mm
02:42 AM 78.1°F25.6°C 70.3°F21.3°C 77% 2.3 mph W3.7 kmh W 6.0 mph9.7 kmh 29.88 in1011.9 mb 0.00 in0.0 mm 0.00 in0.0 mm 0.00 in0.0 mm
02:47 AM 78.3°F25.7°C 70.6°F21.4°C 77% 2.5 mph WNW4.0 kmh WNW 6.0 mph9.7 kmh 29.88 in1011.9 mb 0.00 in0.0 mm 0.00 in0.0 mm 0.00 in0.0 mm
02:52 AM 77.9°F25.5°C 70.6°F21.4°C 78% 2.2 mph WNW3.5 kmh WNW 6.0 mph9.7 kmh 29.88 in1011.9 mb 0.00 in0.0 mm 0.00 in0.0 mm 0.00 in0.0 mm
02:57 AM 77.5°F25.3°C 70.6°F21.4°C 79% 2.9 mph WNW4.7 kmh WNW 6.0 mph9.7 kmh 29.88 in1011.9 mb 0.00 in0.0 mm 0.00 in0.0 mm 0.00 in0.0 mm
03:02 AM 77.3°F25.2°C 70.8°F21.6°C 80% 2.5 mph NW4.0 kmh NW 7.0 mph11.3 kmh 29.88 in1011.9 mb 0.00 in0.0 mm 0.00 in0.0 mm 0.00 in0.0 mm
03:07 AM 77.2°F25.1°C 70.7°F21.5°C 80% 2.6 mph WNW4.2 kmh WNW 7.0 mph11.3 kmh 29.87 in1011.5 mb 0.00 in0.0 mm 0.00 in0.0 mm 0.00 in0.0 mm
03:12 AM 77.2°F25.1°C 70.3°F21.3°C 79% 2.3 mph WSW3.7 kmh WSW 7.0 mph11.3 kmh 29.87 in1011.5 mb 0.00 in0.0 mm 0.00 in0.0 mm 0.00 in0.0 mm
03:17 AM 77.1°F25.1°C 70.5°F21.4°C 80% 1.8 mph WSW2.9 kmh WSW 6.0 mph9.7 kmh 29.88 in1011.9 mb 0.00 in0.0 mm 0.00 in0.0 mm 0.00 in0.0 mm
03:22 AM 76.8°F24.9°C 70.6°F21.4°C 81% 1.2 mph WSW1.9 kmh WSW 6.0 mph9.7 kmh 29.88 in1011.9 mb 0.00 in0.0 mm 0.00 in0.0 mm 0.00 in0.0 mm
03:27 AM 76.5°F24.7°C 70.3°F21.3°C 81% 2.0 mph WSW3.2 kmh WSW 5.0 mph8.0 kmh 29.88 in1011.9 mb 0.00 in0.0 mm 0.00 in0.0 mm 0.00 in0.0 mm
03:32 AM 76.3°F24.6°C 70.5°F21.4°C 82% 2.4 mph WSW3.9 kmh WSW 6.0 mph9.7 kmh 29.87 in1011.5 mb 0.00 in0.0 mm 0.00 in0.0 mm 0.00 in0.0 mm
03:37 AM 76.3°F24.6°C 70.1°F21.2°C 81% 1.8 mph W2.9 kmh W 6.0 mph9.7 kmh 29.87 in1011.5 mb 0.00 in0.0 mm 0.00 in0.0 mm 0.00 in0.0 mm
03:42 AM 76.4°F24.7°C 70.2°F21.2°C 81% 1.9 mph W3.1 kmh W 7.0 mph11.3 kmh 29.87 in1011.5 mb 0.00 in0.0 mm 0.00 in0.0 mm 0.00 in0.0 mm
03:47 AM 76.5°F24.7°C 70.3°F21.3°C 81% 2.1 mph WSW3.4 kmh WSW 7.0 mph11.3 kmh 29.87 in1011.5 mb 0.00 in0.0 mm 0.00 in0.0 mm 0.00 in0.0 mm
03:52 AM 76.4°F24.7°C 70.2°F21.2°C 81% 1.8 mph WSW2.9 kmh WSW 7.0 mph11.3 kmh 29.87 in1011.5 mb 0.00 in0.0 mm 0.00 in0.0 mm 0.00 in0.0 mm
03:57 AM 76.2°F24.6°C 70.3°F21.3°C 82% 1.2 mph W1.9 kmh W 7.0 mph11.3 kmh 29.87 in1011.5 mb 0.00 in0.0 mm 0.00 in0.0 mm 0.00 in0.0 mm
04:02 AM 76.1°F24.5°C 70.3°F21.3°C 82% 1.6 mph WSW2.6 kmh WSW 4.0 mph6.4 kmh 29.87 in1011.5 mb 0.00 in0.0 mm 0.00 in0.0 mm 0.00 in0.0 mm
04:07 AM 75.9°F24.4°C 70.1°F21.2°C 82% 1.5 mph W2.4 kmh W 4.0 mph6.4 kmh 29.87 in1011.5 mb 0.00 in0.0 mm 0.00 in0.0 mm 0.00 in0.0 mm
04:12 AM 75.8°F24.3°C 70.3°F21.3°C 83% 2.0 mph WSW3.2 kmh WSW 4.0 mph6.4 kmh 29.87 in1011.5 mb 0.00 in0.0 mm 0.00 in0.0 mm 0.00 in0.0 mm
04:17 AM 75.7°F24.3°C 70.2°F21.2°C 83% 1.1 mph W1.8 kmh W 4.0 mph6.4 kmh 29.87 in1011.5 mb 0.00 in0.0 mm 0.00 in0.0 mm 0.00 in0.0 mm
04:22 AM 75.6°F24.2°C 70.1°F21.2°C 83% 1.6 mph W2.6 kmh W 4.0 mph6.4 kmh 29.87 in1011.5 mb 0.00 in0.0 mm 0.00 in0.0 mm 0.00 in0.0 mm
04:27 AM 75.6°F24.2°C 70.1°F21.2°C 83% 1.3 mph WNW2.1 kmh WNW 4.0 mph6.4 kmh 29.87 in1011.5 mb 0.00 in0.0 mm 0.00 in0.0 mm 0.00 in0.0 mm
04:32 AM 75.6°F24.2°C 70.5°F21.4°C 84% 1.0 mph WSW1.6 kmh WSW 4.0 mph6.4 kmh 29.87 in1011.5 mb 0.00 in0.0 mm 0.00 in0.0 mm 0.00 in0.0 mm
04:37 AM 75.5°F24.2°C 70.3°F21.3°C 84% 1.1 mph NW1.8 kmh NW 4.0 mph6.4 kmh 29.87 in1011.5 mb 0.00 in0.0 mm 0.00 in0.0 mm 0.00 in0.0 mm
04:42 AM 75.5°F24.2°C 70.4°F21.3°C 84% 1.9 mph NW3.1 kmh NW 3.0 mph4.8 kmh 29.87 in1011.5 mb 0.00 in0.0 mm 0.00 in0.0 mm 0.00 in0.0 mm
04:47 AM 75.5°F24.2°C 70.4°F21.3°C 84% 1.6 mph WNW2.6 kmh WNW 3.0 mph4.8 kmh 29.87 in1011.5 mb 0.00 in0.0 mm 0.00 in0.0 mm 0.00 in0.0 mm
04:52 AM 75.4°F24.1°C 70.2°F21.2°C 84% 1.6 mph W2.6 kmh W 4.0 mph6.4 kmh 29.88 in1011.9 mb 0.00 in0.0 mm 0.00 in0.0 mm 0.00 in0.0 mm
04:57 AM 75.3°F24.1°C 70.2°F21.2°C 84% 1.5 mph WSW2.4 kmh WSW 4.0 mph6.4 kmh 29.88 in1011.9 mb 0.00 in0.0 mm 0.00 in0.0 mm 0.00 in0.0 mm
05:02 AM 75.0°F23.9°C 70.2°F21.2°C 85% 1.2 mph WSW1.9 kmh WSW 4.0 mph6.4 kmh 29.88 in1011.9 mb 0.00 in0.0 mm 0.00 in0.0 mm 0.00 in0.0 mm
05:07 AM 74.7°F23.7°C 69.9°F21.1°C 85% 1.3 mph WSW2.1 kmh WSW 4.0 mph6.4 kmh 29.88 in1011.9 mb 0.00 in0.0 mm 0.00 in0.0 mm 0.00 in0.0 mm
05:12 AM 74.4°F23.6°C 70.0°F21.1°C 86% 1.0 mph WSW1.6 kmh WSW 3.0 mph4.8 kmh 29.88 in1011.9 mb 0.00 in0.0 mm 0.00 in0.0 mm 0.00 in0.0 mm
05:17 AM 74.2°F23.4°C 70.1°F21.2°C 87% 1.0 mph SW1.6 kmh SW 3.0 mph4.8 kmh 29.88 in1011.9 mb 0.00 in0.0 mm 0.00 in0.0 mm 0.00 in0.0 mm
05:22 AM 74.0°F23.3°C 69.9°F21.1°C 87% 1.7 mph SW2.7 kmh SW 3.0 mph4.8 kmh 29.88 in1011.9 mb 0.00 in0.0 mm 0.00 in0.0 mm 0.00 in0.0 mm
05:27 AM 73.7°F23.2°C 69.9°F21.1°C 88% 1.0 mph WSW1.6 kmh WSW 2.0 mph3.2 kmh 29.88 in1011.9 mb 0.00 in0.0 mm 0.00 in0.0 mm 0.00 in0.0 mm
05:32 AM 73.6°F23.1°C 69.8°F21.0°C 88% 1.0 mph WSW1.6 kmh WSW 3.0 mph4.8 kmh 29.88 in1011.9 mb 0.00 in0.0 mm 0.00 in0.0 mm 0.00 in0.0 mm
05:37 AM 73.6°F23.1°C 69.8°F21.0°C 88% 1.4 mph WSW2.3 kmh WSW 3.0 mph4.8 kmh 29.89 in1012.2 mb 0.00 in0.0 mm 0.00 in0.0 mm 0.00 in0.0 mm
05:42 AM 73.7°F23.2°C 69.9°F21.1°C 88% 2.4 mph W3.9 kmh W 4.0 mph6.4 kmh 29.88 in1011.9 mb 0.00 in0.0 mm 0.00 in0.0 mm 0.00 in0.0 mm
05:47 AM 73.7°F23.2°C 69.9°F21.1°C 88% 1.9 mph W3.1 kmh W 4.0 mph6.4 kmh 29.89 in1012.2 mb 0.00 in0.0 mm 0.00 in0.0 mm 0.00 in0.0 mm
05:52 AM 73.7°F23.2°C 69.9°F21.1°C 88% 1.3 mph W2.1 kmh W 4.0 mph6.4 kmh 29.89 in1012.2 mb 0.00 in0.0 mm 0.00 in0.0 mm 0.00 in0.0 mm
05:57 AM 73.7°F23.2°C 69.9°F21.1°C 88% 1.6 mph W2.6 kmh W 4.0 mph6.4 kmh 29.89 in1012.2 mb 0.00 in0.0 mm 0.00 in0.0 mm 0.00 in0.0 mm
06:02 AM 73.8°F23.2°C 70.0°F21.1°C 88% 1.7 mph W2.7 kmh W 4.0 mph6.4 kmh 29.89 in1012.2 mb 0.00 in0.0 mm 0.00 in0.0 mm 0.00 in0.0 mm
06:07 AM 73.8°F23.2°C 70.0°F21.1°C 88% 1.1 mph W1.8 kmh W 4.0 mph6.4 kmh 29.89 in1012.2 mb 0.00 in0.0 mm 0.00 in0.0 mm 0.00 in0.0 mm
06:12 AM 73.7°F23.2°C 69.9°F21.1°C 88% 1.6 mph WSW2.6 kmh WSW 4.0 mph6.4 kmh 29.89 in1012.2 mb 0.00 in0.0 mm 0.00 in0.0 mm 0.00 in0.0 mm
06:17 AM 73.7°F23.2°C 69.9°F21.1°C 88% 1.3 mph W2.1 kmh W 4.0 mph6.4 kmh 29.89 in1012.2 mb 0.00 in0.0 mm 0.00 in0.0 mm 0.00 in0.0 mm
06:22 AM 73.9°F23.3°C 70.1°F21.2°C 88% 2.2 mph W3.5 kmh W 5.0 mph8.0 kmh 29.89 in1012.2 mb 0.00 in0.0 mm 0.00 in0.0 mm 0.00 in0.0 mm
06:27 AM 74.2°F23.4°C 70.1°F21.2°C 87% 1.2 mph WNW1.9 kmh WNW 5.0 mph8.0 kmh 29.89 in1012.2 mb 0.00 in0.0 mm 0.00 in0.0 mm 0.00 in0.0 mm
06:32 AM 74.3°F23.5°C 69.9°F21.1°C 86% 1.0 mph WNW1.6 kmh WNW 5.0 mph8.0 kmh 29.89 in1012.2 mb 0.00 in0.0 mm 0.00 in0.0 mm 0.00 in0.0 mm
06:37 AM 74.5°F23.6°C 70.1°F21.2°C 86% 1.8 mph W2.9 kmh W 5.0 mph8.0 kmh 29.90 in1012.5 mb 0.00 in0.0 mm 0.00 in0.0 mm 0.00 in0.0 mm
06:42 AM 74.7°F23.7°C 69.9°F21.1°C 85% 1.6 mph W2.6 kmh W 4.0 mph6.4 kmh 29.90 in1012.5 mb 0.00 in0.0 mm 0.00 in0.0 mm 0.00 in0.0 mm
06:47 AM 74.7°F23.7°C 69.9°F21.1°C 85% 1.2 mph WSW1.9 kmh WSW 4.0 mph6.4 kmh 29.90 in1012.5 mb 0.00 in0.0 mm 0.00 in0.0 mm 0.00 in0.0 mm
06:52 AM 74.6°F23.7°C 70.2°F21.2°C 86% 1.2 mph WSW1.9 kmh WSW 4.0 mph6.4 kmh 29.90 in1012.5 mb 0.00 in0.0 mm 0.00 in0.0 mm 0.00 in0.0 mm
06:57 AM 74.6°F23.7°C 70.2°F21.2°C 86% 1.7 mph WSW2.7 kmh WSW 4.0 mph6.4 kmh 29.91 in1012.9 mb 0.00 in0.0 mm 0.00 in0.0 mm 0.00 in0.0 mm
07:02 AM 74.6°F23.7°C 70.2°F21.2°C 86% 2.4 mph WNW3.9 kmh WNW 4.0 mph6.4 kmh 29.91 in1012.9 mb 0.00 in0.0 mm 0.00 in0.0 mm 0.00 in0.0 mm
07:07 AM 74.9°F23.8°C 70.1°F21.2°C 85% 2.7 mph WNW4.3 kmh WNW 5.0 mph8.0 kmh 29.91 in1012.9 mb 0.00 in0.0 mm 0.00 in0.0 mm 0.00 in0.0 mm
07:11 AM 75.2°F24.0°C 70.1°F21.2°C 84% 1.7 mph WNW2.7 kmh WNW 6.0 mph9.7 kmh 29.91 in1012.9 mb 0.00 in0.0 mm 0.00 in0.0 mm 0.00 in0.0 mm
07:16 AM 75.5°F24.2°C 70.0°F21.1°C 83% 3.3 mph WNW5.3 kmh WNW 9.0 mph14.5 kmh 29.91 in1012.9 mb 0.00 in0.0 mm 0.00 in0.0 mm 0.00 in0.0 mm
07:21 AM 75.8°F24.3°C 70.0°F21.1°C 82% 2.9 mph WNW4.7 kmh WNW 9.0 mph14.5 kmh 29.91 in1012.9 mb 0.00 in0.0 mm 0.00 in0.0 mm 0.00 in0.0 mm
07:26 AM 76.2°F24.6°C 70.0°F21.1°C 81% 3.3 mph W5.3 kmh W 9.0 mph14.5 kmh 29.91 in1012.9 mb 0.00 in0.0 mm 0.00 in0.0 mm 0.00 in0.0 mm
07:31 AM 76.3°F24.6°C 69.8°F21.0°C 80% 2.8 mph WNW4.5 kmh WNW 9.0 mph14.5 kmh 29.91 in1012.9 mb 0.00 in0.0 mm 0.00 in0.0 mm 0.00 in0.0 mm
07:36 AM 76.5°F24.7°C 70.3°F21.3°C 81% 3.0 mph NW4.8 kmh NW 9.0 mph14.5 kmh 29.91 in1012.9 mb 0.00 in0.0 mm 0.00 in0.0 mm 0.00 in0.0 mm
07:41 AM 76.6°F24.8°C 70.1°F21.2°C 80% 2.7 mph WNW4.3 kmh WNW 9.0 mph14.5 kmh 29.91 in1012.9 mb 0.00 in0.0 mm 0.00 in0.0 mm 0.00 in0.0 mm
07:46 AM 76.7°F24.8°C 70.2°F21.2°C 80% 2.8 mph WNW4.5 kmh WNW 9.0 mph14.5 kmh 29.91 in1012.9 mb 0.00 in0.0 mm 0.00 in0.0 mm 0.00 in0.0 mm
07:51 AM 77.0°F25.0°C 70.1°F21.2°C 79% 3.5 mph NW5.6 kmh NW 9.0 mph14.5 kmh 29.92 in1013.2 mb 0.00 in0.0 mm 0.00 in0.0 mm 0.00 in0.0 mm
07:56 AM 77.3°F25.2°C 69.7°F20.9°C 77% 3.0 mph WNW4.8 kmh WNW 8.0 mph12.9 kmh 29.92 in1013.2 mb 0.00 in0.0 mm 0.00 in0.0 mm 0.00 in0.0 mm
08:01 AM 77.5°F25.3°C 69.9°F21.1°C 77% 2.0 mph NW3.2 kmh NW 8.0 mph12.9 kmh 29.92 in1013.2 mb 0.00 in0.0 mm 0.00 in0.0 mm 0.00 in0.0 mm
08:06 AM 77.7°F25.4°C 70.1°F21.2°C 77% 2.6 mph WNW4.2 kmh WNW 8.0 mph12.9 kmh 29.92 in1013.2 mb 0.00 in0.0 mm 0.00 in0.0 mm 0.00 in0.0 mm
08:11 AM 77.8°F25.4°C 69.8°F21.0°C 76% 3.6 mph WNW5.8 kmh WNW 7.0 mph11.3 kmh 29.93 in1013.5 mb 0.00 in0.0 mm 0.00 in0.0 mm 0.00 in0.0 mm
08:16 AM 77.9°F25.5°C 69.9°F21.1°C 76% 2.9 mph WNW4.7 kmh WNW 7.0 mph11.3 kmh 29.93 in1013.5 mb 0.00 in0.0 mm 0.00 in0.0 mm 0.00 in0.0 mm
08:21 AM 78.0°F25.6°C 69.8°F21.0°C 76% 2.7 mph W4.3 kmh W 7.0 mph11.3 kmh 29.93 in1013.5 mb 0.00 in0.0 mm 0.00 in0.0 mm 0.00 in0.0 mm
08:26 AM 78.1°F25.6°C 70.1°F21.2°C 76% 1.8 mph WNW2.9 kmh WNW 7.0 mph11.3 kmh 29.93 in1013.5 mb 0.00 in0.0 mm 0.00 in0.0 mm 0.00 in0.0 mm
08:31 AM 78.1°F25.6°C 69.9°F21.1°C 76% 1.7 mph W2.7 kmh W 7.0 mph11.3 kmh 29.93 in1013.5 mb 0.00 in0.0 mm 0.00 in0.0 mm 0.00 in0.0 mm
08:36 AM 78.2°F25.7°C 70.2°F21.2°C 76% 2.8 mph W4.5 kmh W 6.0 mph9.7 kmh 29.93 in1013.5 mb 0.00 in0.0 mm 0.00 in0.0 mm 0.00 in0.0 mm
08:41 AM 78.3°F25.7°C 70.3°F21.3°C 76% 1.3 mph W2.1 kmh W 6.0 mph9.7 kmh 29.93 in1013.5 mb 0.00 in0.0 mm 0.00 in0.0 mm 0.00 in0.0 mm
08:46 AM 78.6°F25.9°C 70.6°F21.4°C 76% 1.2 mph N1.9 kmh N 6.0 mph9.7 kmh 29.93 in1013.5 mb 0.00 in0.0 mm 0.00 in0.0 mm 0.00 in0.0 mm
08:51 AM 78.7°F25.9°C 70.7°F21.5°C 76% 1.8 mph W2.9 kmh W 5.0 mph8.0 kmh 29.94 in1013.9 mb 0.00 in0.0 mm 0.00 in0.0 mm 0.00 in0.0 mm
08:56 AM 79.1°F26.2°C 71.0°F21.7°C 76% 1.8 mph NW2.9 kmh NW 4.0 mph6.4 kmh 29.94 in1013.9 mb 0.00 in0.0 mm 0.00 in0.0 mm 0.00 in0.0 mm
09:01 AM 79.2°F26.2°C 70.6°F21.4°C 75% 3.4 mph W5.5 kmh W 7.0 mph11.3 kmh 29.93 in1013.5 mb 0.00 in0.0 mm 0.00 in0.0 mm 0.00 in0.0 mm
09:06 AM 79.6°F26.4°C 70.8°F21.6°C 74% 3.2 mph WNW5.1 kmh WNW 7.0 mph11.3 kmh 29.93 in1013.5 mb 0.00 in0.0 mm 0.00 in0.0 mm 0.00 in0.0 mm
09:11 AM 80.0°F26.7°C 71.2°F21.8°C 74% 2.5 mph WNW4.0 kmh WNW 7.0 mph11.3 kmh 29.94 in1013.9 mb 0.00 in0.0 mm 0.00 in0.0 mm 0.00 in0.0 mm
09:16 AM 80.3°F26.8°C 70.7°F21.5°C 72% 4.3 mph WNW6.9 kmh WNW 8.0 mph12.9 kmh 29.93 in1013.5 mb 0.00 in0.0 mm 0.00 in0.0 mm 0.00 in0.0 mm
09:21 AM 80.7°F27.1°C 70.8°F21.6°C 72% 2.2 mph W3.5 kmh W 8.0 mph12.9 kmh 29.93 in1013.5 mb 0.00 in0.0 mm 0.00 in0.0 mm 0.00 in0.0 mm
09:26 AM 80.9°F27.2°C 71.0°F21.7°C 72% 2.8 mph WNW4.5 kmh WNW 8.0 mph12.9 kmh 29.93 in1013.5 mb 0.00 in0.0 mm 0.00 in0.0 mm 0.00 in0.0 mm
09:31 AM 80.9°F27.2°C 70.8°F21.6°C 71% 2.9 mph WNW4.7 kmh WNW 8.0 mph12.9 kmh 29.93 in1013.5 mb 0.00 in0.0 mm 0.00 in0.0 mm 0.00 in0.0 mm
09:36 AM 81.3°F27.4°C 71.2°F21.8°C 71% 2.8 mph NW4.5 kmh NW 8.0 mph12.9 kmh 29.93 in1013.5 mb 0.00 in0.0 mm 0.00 in0.0 mm 0.00 in0.0 mm
09:41 AM 82.0°F27.8°C 71.9°F22.2°C 71% 1.5 mph NW2.4 kmh NW 8.0 mph12.9 kmh 29.93 in1013.5 mb 0.00 in0.0 mm 0.00 in0.0 mm 0.00 in0.0 mm
09:46 AM 82.5°F28.1°C 71.1°F21.7°C 68% 3.2 mph WNW5.1 kmh WNW 8.0 mph12.9 kmh 29.93 in1013.5 mb 0.00 in0.0 mm 0.00 in0.0 mm 0.00 in0.0 mm
09:51 AM 82.5°F28.1°C 71.1°F21.7°C 68% 4.3 mph WNW6.9 kmh WNW 9.0 mph14.5 kmh 29.93 in1013.5 mb 0.00 in0.0 mm 0.00 in0.0 mm 0.00 in0.0 mm
09:56 AM 82.7°F28.2°C 71.1°F21.7°C 68% 3.2 mph WNW5.1 kmh WNW 9.0 mph14.5 kmh 29.93 in1013.5 mb 0.00 in0.0 mm 0.00 in0.0 mm 0.00 in0.0 mm
10:01 AM 82.7°F28.2°C 70.9°F21.6°C 67% 3.6 mph WNW5.8 kmh WNW 9.0 mph14.5 kmh 29.93 in1013.5 mb 0.00 in0.0 mm 0.00 in0.0 mm 0.00 in0.0 mm
10:06 AM 83.2°F28.4°C 71.8°F22.1°C 68% 1.5 mph WSW2.4 kmh WSW 9.0 mph14.5 kmh 29.93 in1013.5 mb 0.00 in0.0 mm 0.00 in0.0 mm 0.00 in0.0 mm
10:11 AM 83.2°F28.4°C 71.4°F21.9°C 67% 3.9 mph WNW6.3 kmh WNW 8.0 mph12.9 kmh 29.93 in1013.5 mb 0.00 in0.0 mm 0.00 in0.0 mm 0.00 in0.0 mm
10:16 AM 83.4°F28.6°C 71.6°F22.0°C 67% 2.4 mph WNW3.9 kmh WNW 8.0 mph12.9 kmh 29.94 in1013.9 mb 0.00 in0.0 mm 0.00 in0.0 mm 0.00 in0.0 mm
10:21 AM 84.1°F28.9°C 72.7°F22.6°C 68% 2.1 mph W3.4 kmh W 8.0 mph12.9 kmh 29.93 in1013.5 mb 0.00 in0.0 mm 0.00 in0.0 mm 0.00 in0.0 mm
10:26 AM 84.8°F29.3°C 73.3°F22.9°C 68% 1.0 mph WSW1.6 kmh WSW 8.0 mph12.9 kmh 29.93 in1013.5 mb 0.00 in0.0 mm 0.00 in0.0 mm 0.00 in0.0 mm
10:31 AM 85.9°F29.9°C 73.5°F23.1°C 66% 2.4 mph N3.9 kmh N 7.0 mph11.3 kmh 29.93 in1013.5 mb 0.00 in0.0 mm 0.00 in0.0 mm 0.00 in0.0 mm
10:36 AM 86.6°F30.3°C 72.3°F22.4°C 62% 3.2 mph NW5.1 kmh NW 7.0 mph11.3 kmh 29.93 in1013.5 mb 0.00 in0.0 mm 0.00 in0.0 mm 0.00 in0.0 mm
10:41 AM 87.0°F30.6°C 72.7°F22.6°C 62% 3.7 mph NW6.0 kmh NW 9.0 mph14.5 kmh 29.93 in1013.5 mb 0.00 in0.0 mm 0.00 in0.0 mm 0.00 in0.0 mm
10:46 AM 87.6°F30.9°C 72.8°F22.7°C 61% 1.8 mph WNW2.9 kmh WNW 9.0 mph14.5 kmh 29.93 in1013.5 mb 0.00 in0.0 mm 0.00 in0.0 mm 0.00 in0.0 mm
10:51 AM 87.6°F30.9°C 71.5°F21.9°C 59% 3.7 mph NW6.0 kmh NW 10.0 mph16.1 kmh 29.93 in1013.5 mb 0.00 in0.0 mm 0.00 in0.0 mm 0.00 in0.0 mm
10:56 AM 88.0°F31.1°C 72.4°F22.4°C 60% 2.7 mph NW4.3 kmh NW 10.0 mph16.1 kmh 29.93 in1013.5 mb 0.00 in0.0 mm 0.00 in0.0 mm 0.00 in0.0 mm
11:01 AM 88.4°F31.3°C 72.5°F22.5°C 59% 3.4 mph NW5.5 kmh NW 10.0 mph16.1 kmh 29.93 in1013.5 mb 0.00 in0.0 mm 0.00 in0.0 mm 0.00 in0.0 mm
11:06 AM 88.2°F31.2°C 72.3°F22.4°C 59% 3.2 mph NW5.1 kmh NW 10.0 mph16.1 kmh 29.94 in1013.9 mb 0.00 in0.0 mm 0.00 in0.0 mm 0.00 in0.0 mm
11:11 AM 87.9°F31.1°C 70.0°F21.1°C 55% 4.8 mph W7.7 kmh W 11.0 mph17.7 kmh 29.94 in1013.9 mb 0.00 in0.0 mm 0.00 in0.0 mm 0.00 in0.0 mm
11:16 AM 87.8°F31.0°C 70.4°F21.3°C 56% 5.3 mph WNW8.5 kmh WNW 14.0 mph22.5 kmh 29.93 in1013.5 mb 0.00 in0.0 mm 0.00 in0.0 mm 0.00 in0.0 mm
11:21 AM 87.7°F30.9°C 70.8°F21.6°C 57% 2.9 mph WNW4.7 kmh WNW 14.0 mph22.5 kmh 29.93 in1013.5 mb 0.00 in0.0 mm 0.00 in0.0 mm 0.00 in0.0 mm
11:26 AM 87.7°F30.9°C 70.8°F21.6°C 57% 5.2 mph W8.4 kmh W 14.0 mph22.5 kmh 29.93 in1013.5 mb 0.00 in0.0 mm 0.00 in0.0 mm 0.00 in0.0 mm
11:31 AM 88.0°F31.1°C 71.1°F21.7°C 57% 6.5 mph W10.5 kmh W 14.0 mph22.5 kmh 29.93 in1013.5 mb 0.00 in0.0 mm 0.00 in0.0 mm 0.00 in0.0 mm
11:36 AM 88.3°F31.3°C 72.2°F22.3°C 59% 2.6 mph WNW4.2 kmh WNW 12.0 mph19.3 kmh 29.93 in1013.5 mb 0.00 in0.0 mm 0.00 in0.0 mm 0.00 in0.0 mm
11:41 AM 88.4°F31.3°C 72.0°F22.2°C 58% 5.0 mph NW8.0 kmh NW 12.0 mph19.3 kmh 29.93 in1013.5 mb 0.00 in0.0 mm 0.00 in0.0 mm 0.00 in0.0 mm
11:46 AM 88.7°F31.5°C 72.8°F22.7°C 59% 2.2 mph NW3.5 kmh NW 12.0 mph19.3 kmh 29.93 in1013.5 mb 0.00 in0.0 mm 0.00 in0.0 mm 0.00 in0.0 mm
11:51 AM 88.5°F31.4°C 72.1°F22.3°C 58% 4.2 mph WNW6.8 kmh WNW 10.0 mph16.1 kmh 29.94 in1013.9 mb 0.00 in0.0 mm 0.00 in0.0 mm 0.00 in0.0 mm
11:56 AM 88.7°F31.5°C 72.5°F22.5°C 59% 4.7 mph NW7.6 kmh NW 10.0 mph16.1 kmh 29.93 in1013.5 mb 0.00 in0.0 mm 0.00 in0.0 mm 0.00 in0.0 mm
12:01 PM 89.0°F31.7°C 73.1°F22.8°C 59% 2.6 mph NW4.2 kmh NW 10.0 mph16.1 kmh 29.93 in1013.5 mb 0.00 in0.0 mm 0.00 in0.0 mm 0.00 in0.0 mm
12:06 PM 89.6°F32.0°C 72.1°F22.3°C 56% 4.6 mph NW7.4 kmh NW 11.0 mph17.7 kmh 29.93 in1013.5 mb 0.00 in0.0 mm 0.00 in0.0 mm 0.00 in0.0 mm
12:11 PM 89.6°F32.0°C 72.3°F22.4°C 57% 2.4 mph WNW3.9 kmh WNW 11.0 mph17.7 kmh 29.93 in1013.5 mb 0.00 in0.0 mm 0.00 in0.0 mm 0.00 in0.0 mm
12:16 PM 89.5°F31.9°C 72.0°F22.2°C 56% 5.2 mph NW8.4 kmh NW 13.0 mph20.9 kmh 29.93 in1013.5 mb 0.00 in0.0 mm 0.00 in0.0 mm 0.00 in0.0 mm
12:21 PM 89.8°F32.1°C 72.8°F22.7°C 57% 1.9 mph NW3.1 kmh NW 13.0 mph20.9 kmh 29.92 in1013.2 mb 0.00 in0.0 mm 0.00 in0.0 mm 0.00 in0.0 mm
12:26 PM 90.4°F32.4°C 72.3°F22.4°C 55% 3.6 mph WNW5.8 kmh WNW 13.0 mph20.9 kmh 29.92 in1013.2 mb 0.00 in0.0 mm 0.00 in0.0 mm 0.00 in0.0 mm
12:31 PM 90.2°F32.3°C 71.8°F22.1°C 55% 5.0 mph NW8.0 kmh NW 13.0 mph20.9 kmh 29.92 in1013.2 mb 0.00 in0.0 mm 0.00 in0.0 mm 0.00 in0.0 mm
12:36 PM 90.0°F32.2°C 71.7°F22.1°C 55% 6.7 mph WNW10.8 kmh WNW 14.0 mph22.5 kmh 29.93 in1013.5 mb 0.00 in0.0 mm 0.00 in0.0 mm 0.00 in0.0 mm
12:41 PM 90.0°F32.2°C 72.5°F22.5°C 56% 4.7 mph NW7.6 kmh NW 14.0 mph22.5 kmh 29.93 in1013.5 mb 0.00 in0.0 mm 0.00 in0.0 mm 0.00 in0.0 mm
12:46 PM 89.8°F32.1°C 72.3°F22.4°C 56% 3.9 mph WNW6.3 kmh WNW 14.0 mph22.5 kmh 29.92 in1013.2 mb 0.00 in0.0 mm 0.00 in0.0 mm 0.00 in0.0 mm
12:51 PM 89.8°F32.1°C 72.3°F22.4°C 56% 3.7 mph NW6.0 kmh NW 14.0 mph22.5 kmh 29.92 in1013.2 mb 0.00 in0.0 mm 0.00 in0.0 mm 0.00 in0.0 mm
12:56 PM 90.5°F32.5°C 72.9°F22.7°C 56% 3.4 mph NNW5.5 kmh NNW 13.0 mph20.9 kmh 29.92 in1013.2 mb 0.00 in0.0 mm 0.00 in0.0 mm 0.00 in0.0 mm
01:01 PM 90.8°F32.7°C 72.4°F22.4°C 55% 4.2 mph WNW6.8 kmh WNW 11.0 mph17.7 kmh 29.92 in1013.2 mb 0.00 in0.0 mm 0.00 in0.0 mm 0.00 in0.0 mm
01:06 PM 90.8°F32.7°C 71.9°F22.2°C 54% 3.8 mph NW6.1 kmh NW 11.0 mph17.7 kmh 29.92 in1013.2 mb 0.00 in0.0 mm 0.00 in0.0 mm 0.00 in0.0 mm
01:10 PM 90.8°F32.7°C 72.7°F22.6°C 55% 5.2 mph NW8.4 kmh NW 10.0 mph16.1 kmh 29.92 in1013.2 mb 0.00 in0.0 mm 0.00 in0.0 mm 0.00 in0.0 mm
01:15 PM 90.8°F32.7°C 72.1°F22.3°C 54% 6.6 mph W10.6 kmh W 12.0 mph19.3 kmh 29.91 in1012.9 mb 0.00 in0.0 mm 0.00 in0.0 mm 0.00 in0.0 mm
01:20 PM 90.6°F32.6°C 72.5°F22.5°C 55% 3.9 mph NW6.3 kmh NW 12.0 mph19.3 kmh 29.91 in1012.9 mb 0.00 in0.0 mm 0.00 in0.0 mm 0.00 in0.0 mm
01:25 PM 90.8°F32.7°C 73.2°F22.9°C 56% 3.0 mph NW4.8 kmh NW 12.0 mph19.3 kmh 29.91 in1012.9 mb 0.00 in0.0 mm 0.00 in0.0 mm 0.00 in0.0 mm
01:30 PM 91.0°F32.8°C 72.9°F22.7°C 55% 3.8 mph NW6.1 kmh NW 12.0 mph19.3 kmh 29.91 in1012.9 mb 0.00 in0.0 mm 0.00 in0.0 mm 0.00 in0.0 mm
01:35 PM 91.5°F33.1°C 72.2°F22.3°C 53% 5.9 mph W9.5 kmh W 10.0 mph16.1 kmh 29.91 in1012.9 mb 0.00 in0.0 mm 0.00 in0.0 mm 0.00 in0.0 mm
01:40 PM 91.5°F33.1°C 72.8°F22.7°C 54% 3.2 mph WSW5.1 kmh WSW 10.0 mph16.1 kmh 29.91 in1012.9 mb 0.00 in0.0 mm 0.00 in0.0 mm 0.00 in0.0 mm
01:45 PM 91.9°F33.3°C 73.4°F23.0°C 55% 1.9 mph W3.1 kmh W 10.0 mph16.1 kmh 29.91 in1012.9 mb 0.00 in0.0 mm 0.00 in0.0 mm 0.00 in0.0 mm
01:50 PM 91.6°F33.1°C 72.9°F22.7°C 54% 2.9 mph NW4.7 kmh NW 11.0 mph17.7 kmh 29.91 in1012.9 mb 0.00 in0.0 mm 0.00 in0.0 mm 0.00 in0.0 mm
01:55 PM 91.8°F33.2°C 73.0°F22.8°C 54% 2.1 mph NNW3.4 kmh NNW 11.0 mph17.7 kmh 29.90 in1012.5 mb 0.00 in0.0 mm 0.00 in0.0 mm 0.00 in0.0 mm
02:00 PM 92.1°F33.4°C 73.3°F22.9°C 54% 3.4 mph NW5.5 kmh NW 11.0 mph17.7 kmh 29.90 in1012.5 mb 0.00 in0.0 mm 0.00 in0.0 mm 0.00 in0.0 mm
02:05 PM 91.7°F33.2°C 72.4°F22.4°C 53% 3.6 mph W5.8 kmh W 11.0 mph17.7 kmh 29.90 in1012.5 mb 0.00 in0.0 mm 0.00 in0.0 mm 0.00 in0.0 mm
02:10 PM 91.6°F33.1°C 72.6°F22.6°C 54% 2.8 mph NW4.5 kmh NW 11.0 mph17.7 kmh 29.89 in1012.2 mb 0.00 in0.0 mm 0.00 in0.0 mm 0.00 in0.0 mm
02:15 PM 92.1°F33.4°C 72.8°F22.7°C 53% 4.2 mph NW6.8 kmh NW 11.0 mph17.7 kmh 29.89 in1012.2 mb 0.00 in0.0 mm 0.00 in0.0 mm 0.00 in0.0 mm
02:20 PM 92.1°F33.4°C 72.5°F22.5°C 53% 3.5 mph N5.6 kmh N 11.0 mph17.7 kmh 29.89 in1012.2 mb 0.00 in0.0 mm 0.00 in0.0 mm 0.00 in0.0 mm
02:25 PM 92.3°F33.5°C 73.5°F23.1°C 54% 2.6 mph NW4.2 kmh NW 11.0 mph17.7 kmh 29.89 in1012.2 mb 0.00 in0.0 mm 0.00 in0.0 mm 0.00 in0.0 mm
02:30 PM 91.9°F33.3°C 71.4°F21.9°C 51% 7.0 mph NW11.3 kmh NW 12.0 mph19.3 kmh 29.89 in1012.2 mb 0.00 in0.0 mm 0.00 in0.0 mm 0.00 in0.0 mm
02:35 PM 91.9°F33.3°C 72.6°F22.6°C 53% 4.2 mph NW6.8 kmh NW 12.0 mph19.3 kmh 29.89 in1012.2 mb 0.00 in0.0 mm 0.00 in0.0 mm 0.00 in0.0 mm
02:40 PM 92.0°F33.3°C 70.3°F21.3°C 49% 5.9 mph WNW9.5 kmh WNW 14.0 mph22.5 kmh 29.88 in1011.9 mb 0.00 in0.0 mm 0.00 in0.0 mm 0.00 in0.0 mm
02:45 PM 92.0°F33.3°C 70.7°F21.5°C 50% 4.7 mph WNW7.6 kmh WNW 15.0 mph24.1 kmh 29.88 in1011.9 mb 0.00 in0.0 mm 0.00 in0.0 mm 0.00 in0.0 mm
02:50 PM 92.0°F33.3°C 70.9°F21.6°C 50% 5.3 mph W8.5 kmh W 15.0 mph24.1 kmh 29.88 in1011.9 mb 0.00 in0.0 mm 0.00 in0.0 mm 0.00 in0.0 mm
02:55 PM 92.2°F33.4°C 71.7°F22.1°C 51% 4.6 mph NW7.4 kmh NW 15.0 mph24.1 kmh 29.88 in1011.9 mb 0.00 in0.0 mm 0.00 in0.0 mm 0.00 in0.0 mm
03:00 PM 92.3°F33.5°C 71.0°F21.7°C 50% 4.0 mph W6.4 kmh W 15.0 mph24.1 kmh 29.88 in1011.9 mb 0.00 in0.0 mm 0.00 in0.0 mm 0.00 in0.0 mm
03:05 PM 92.4°F33.6°C 71.3°F21.8°C 50% 4.3 mph W6.9 kmh W 13.0 mph20.9 kmh 29.87 in1011.5 mb 0.00 in0.0 mm 0.00 in0.0 mm 0.00 in0.0 mm
03:10 PM 92.2°F33.4°C 72.3°F22.4°C 52% 2.9 mph WNW4.7 kmh WNW 12.0 mph19.3 kmh 29.88 in1011.9 mb 0.00 in0.0 mm 0.00 in0.0 mm 0.00 in0.0 mm
03:15 PM 92.1°F33.4°C 72.8°F22.7°C 53% 2.5 mph NW4.0 kmh NW 12.0 mph19.3 kmh 29.88 in1011.9 mb 0.00 in0.0 mm 0.00 in0.0 mm 0.00 in0.0 mm
03:20 PM 92.7°F33.7°C 73.3°F22.9°C 53% 1.6 mph SW2.6 kmh SW 12.0 mph19.3 kmh 29.87 in1011.5 mb 0.00 in0.0 mm 0.00 in0.0 mm 0.00 in0.0 mm
03:25 PM 92.5°F33.6°C 71.7°F22.1°C 51% 4.7 mph W7.6 kmh W 11.0 mph17.7 kmh 29.87 in1011.5 mb 0.00 in0.0 mm 0.00 in0.0 mm 0.00 in0.0 mm
03:30 PM 92.3°F33.5°C 72.4°F22.4°C 52% 3.4 mph NW5.5 kmh NW 11.0 mph17.7 kmh 29.87 in1011.5 mb 0.00 in0.0 mm 0.00 in0.0 mm 0.00 in0.0 mm
03:35 PM 92.2°F33.4°C 72.8°F22.7°C 53% 4.6 mph W7.4 kmh W 11.0 mph17.7 kmh 29.87 in1011.5 mb 0.00 in0.0 mm 0.00 in0.0 mm 0.00 in0.0 mm
03:40 PM 92.5°F33.6°C 72.0°F22.2°C 51% 3.6 mph W5.8 kmh W 11.0 mph17.7 kmh 29.87 in1011.5 mb 0.00 in0.0 mm 0.00 in0.0 mm 0.00 in0.0 mm
03:45 PM 92.5°F33.6°C 72.5°F22.5°C 52% 3.0 mph WNW4.8 kmh WNW 11.0 mph17.7 kmh 29.87 in1011.5 mb 0.00 in0.0 mm 0.00 in0.0 mm 0.00 in0.0 mm
03:50 PM 92.9°F33.8°C 72.3°F22.4°C 51% 3.6 mph WNW5.8 kmh WNW 11.0 mph17.7 kmh 29.87 in1011.5 mb 0.00 in0.0 mm 0.00 in0.0 mm 0.00 in0.0 mm
03:55 PM 92.6°F33.7°C 72.0°F22.2°C 51% 2.5 mph WNW4.0 kmh WNW 9.0 mph14.5 kmh 29.87 in1011.5 mb 0.00 in0.0 mm 0.00 in0.0 mm 0.00 in0.0 mm
04:00 PM 92.6°F33.7°C 72.6°F22.6°C 52% 3.7 mph W6.0 kmh W 9.0 mph14.5 kmh 29.87 in1011.5 mb 0.00 in0.0 mm 0.00 in0.0 mm 0.00 in0.0 mm
04:05 PM 92.7°F33.7°C 72.7°F22.6°C 52% 1.5 mph WNW2.4 kmh WNW 9.0 mph14.5 kmh 29.86 in1011.2 mb 0.00 in0.0 mm 0.00 in0.0 mm 0.00 in0.0 mm
04:10 PM 93.0°F33.9°C 72.8°F22.7°C 52% 1.6 mph WSW2.6 kmh WSW 9.0 mph14.5 kmh 29.87 in1011.5 mb 0.00 in0.0 mm 0.00 in0.0 mm 0.00 in0.0 mm
04:15 PM 93.3°F34.1°C 72.1°F22.3°C 50% 5.3 mph W8.5 kmh W 9.0 mph14.5 kmh 29.87 in1011.5 mb 0.00 in0.0 mm 0.00 in0.0 mm 0.00 in0.0 mm
04:20 PM 93.0°F33.9°C 73.0°F22.8°C 52% 2.7 mph W4.3 kmh W 9.0 mph14.5 kmh 29.87 in1011.5 mb 0.00 in0.0 mm 0.00 in0.0 mm 0.00 in0.0 mm
04:25 PM 93.3°F34.1°C 72.7°F22.6°C 51% 3.4 mph NW5.5 kmh NW 9.0 mph14.5 kmh 29.87 in1011.5 mb 0.00 in0.0 mm 0.00 in0.0 mm 0.00 in0.0 mm
04:30 PM 93.2°F34.0°C 72.6°F22.6°C 51% 1.8 mph NW2.9 kmh NW 9.0 mph14.5 kmh 29.87 in1011.5 mb 0.00 in0.0 mm 0.00 in0.0 mm 0.00 in0.0 mm
04:35 PM 93.1°F33.9°C 73.1°F22.8°C 52% 1.9 mph W3.1 kmh W 8.0 mph12.9 kmh 29.87 in1011.5 mb 0.00 in0.0 mm 0.00 in0.0 mm 0.00 in0.0 mm
04:40 PM 92.9°F33.8°C 72.3°F22.4°C 51% 4.8 mph WNW7.7 kmh WNW 9.0 mph14.5 kmh 29.87 in1011.5 mb 0.00 in0.0 mm 0.00 in0.0 mm 0.00 in0.0 mm
04:45 PM 93.0°F33.9°C 72.4°F22.4°C 51% 3.7 mph W6.0 kmh W 12.0 mph19.3 kmh 29.87 in1011.5 mb 0.00 in0.0 mm 0.00 in0.0 mm 0.00 in0.0 mm
04:50 PM 92.6°F33.7°C 72.0°F22.2°C 51% 4.3 mph W6.9 kmh W 12.0 mph19.3 kmh 29.87 in1011.5 mb 0.00 in0.0 mm 0.00 in0.0 mm 0.00 in0.0 mm
04:55 PM 92.6°F33.7°C 71.8°F22.1°C 51% 3.0 mph W4.8 kmh W 12.0 mph19.3 kmh 29.87 in1011.5 mb 0.00 in0.0 mm 0.00 in0.0 mm 0.00 in0.0 mm
05:00 PM 93.1°F33.9°C 71.9°F22.2°C 50% 3.3 mph W5.3 kmh W 12.0 mph19.3 kmh 29.87 in1011.5 mb 0.00 in0.0 mm 0.00 in0.0 mm 0.00 in0.0 mm
05:05 PM 93.1°F33.9°C 72.5°F22.5°C 51% 2.3 mph WSW3.7 kmh WSW 10.0 mph16.1 kmh 29.87 in1011.5 mb 0.00 in0.0 mm 0.00 in0.0 mm 0.00 in0.0 mm
05:10 PM 93.4°F34.1°C 72.8°F22.7°C 51% 1.9 mph W3.1 kmh W 8.0 mph12.9 kmh 29.87 in1011.5 mb 0.00 in0.0 mm 0.00 in0.0 mm 0.00 in0.0 mm
05:15 PM 93.6°F34.2°C 72.4°F22.4°C 50% 2.0 mph NW3.2 kmh NW 8.0 mph12.9 kmh 29.87 in1011.5 mb 0.00 in0.0 mm 0.00 in0.0 mm 0.00 in0.0 mm
05:20 PM 93.4°F34.1°C 72.2°F22.3°C 50% 4.5 mph NW7.2 kmh NW 8.0 mph12.9 kmh 29.86 in1011.2 mb 0.00 in0.0 mm 0.00 in0.0 mm 0.00 in0.0 mm
05:25 PM 93.2°F34.0°C 72.0°F22.2°C 50% 2.9 mph NNW4.7 kmh NNW 8.0 mph12.9 kmh 29.86 in1011.2 mb 0.00 in0.0 mm 0.00 in0.0 mm 0.00 in0.0 mm
05:30 PM 93.1°F33.9°C 71.9°F22.2°C 50% 1.2 mph WNW1.9 kmh WNW 8.0 mph12.9 kmh 29.86 in1011.2 mb 0.00 in0.0 mm 0.00 in0.0 mm 0.00 in0.0 mm
05:35 PM 93.4°F34.1°C 72.2°F22.3°C 50% 1.9 mph WNW3.1 kmh WNW 8.0 mph12.9 kmh 29.86 in1011.2 mb 0.00 in0.0 mm 0.00 in0.0 mm 0.00 in0.0 mm
05:40 PM 93.1°F33.9°C 72.9°F22.7°C 52% 1.9 mph N3.1 kmh N 7.0 mph11.3 kmh 29.86 in1011.2 mb 0.00 in0.0 mm 0.00 in0.0 mm 0.00 in0.0 mm
05:45 PM 92.5°F33.6°C 73.7°F23.2°C 54% 1.2 mph NE1.9 kmh NE 6.0 mph9.7 kmh 29.87 in1011.5 mb 0.00 in0.0 mm 0.00 in0.0 mm 0.00 in0.0 mm
05:50 PM 92.3°F33.5°C 74.1°F23.4°C 55% 1.7 mph N2.7 kmh N 6.0 mph9.7 kmh 29.87 in1011.5 mb 0.00 in0.0 mm 0.00 in0.0 mm 0.00 in0.0 mm
05:55 PM 92.2°F33.4°C 73.4°F23.0°C 54% 2.1 mph NNE3.4 kmh NNE 6.0 mph9.7 kmh 29.86 in1011.2 mb 0.00 in0.0 mm 0.00 in0.0 mm 0.00 in0.0 mm
06:00 PM 91.8°F33.2°C 73.0°F22.8°C 54% 2.4 mph 3.9 kmh 6.0 mph9.7 kmh 29.87 in1011.5 mb 0.00 in0.0 mm 0.00 in0.0 mm 0.00 in0.0 mm
06:05 PM 91.7°F33.2°C 72.4°F22.4°C 53% 3.6 mph NNE5.8 kmh NNE 7.0 mph11.3 kmh 29.87 in1011.5 mb 0.00 in0.0 mm 0.00 in0.0 mm 0.00 in0.0 mm
06:09 PM 91.8°F33.2°C 72.5°F22.5°C 53% 1.3 mph N2.1 kmh N 7.0 mph11.3 kmh 29.86 in1011.2 mb 0.00 in0.0 mm 0.00 in0.0 mm 0.00 in0.0 mm
06:14 PM 91.9°F33.3°C 72.3°F22.4°C 53% 2.2 mph NW3.5 kmh NW 7.0 mph11.3 kmh 29.87 in1011.5 mb 0.00 in0.0 mm 0.00 in0.0 mm 0.00 in0.0 mm
06:19 PM 91.9°F33.3°C 72.0°F22.2°C 52% 2.2 mph NW3.5 kmh NW 7.0 mph11.3 kmh 29.87 in1011.5 mb 0.00 in0.0 mm 0.00 in0.0 mm 0.00 in0.0 mm
06:24 PM 91.7°F33.2°C 72.4°F22.4°C 53% 2.0 mph WNW3.2 kmh WNW 5.0 mph8.0 kmh 29.87 in1011.5 mb 0.00 in0.0 mm 0.00 in0.0 mm 0.00 in0.0 mm
06:29 PM 91.3°F32.9°C 72.0°F22.2°C 53% 2.3 mph WNW3.7 kmh WNW 9.0 mph14.5 kmh 29.88 in1011.9 mb 0.00 in0.0 mm 0.00 in0.0 mm 0.00 in0.0 mm
06:34 PM 91.0°F32.8°C 72.3°F22.4°C 54% 3.1 mph WNW5.0 kmh WNW 9.0 mph14.5 kmh 29.88 in1011.9 mb 0.00 in0.0 mm 0.00 in0.0 mm 0.00 in0.0 mm
06:39 PM 90.9°F32.7°C 71.6°F22.0°C 53% 4.2 mph W6.8 kmh W 9.0 mph14.5 kmh 29.88 in1011.9 mb 0.00 in0.0 mm 0.00 in0.0 mm 0.00 in0.0 mm
06:44 PM 90.9°F32.7°C 72.0°F22.2°C 54% 1.8 mph NW2.9 kmh NW 9.0 mph14.5 kmh 29.88 in1011.9 mb 0.00 in0.0 mm 0.00 in0.0 mm 0.00 in0.0 mm
06:49 PM 90.7°F32.6°C 72.0°F22.2°C 54% 2.9 mph W4.7 kmh W 9.0 mph14.5 kmh 29.88 in1011.9 mb 0.00 in0.0 mm 0.00 in0.0 mm 0.00 in0.0 mm
06:54 PM 90.4°F32.4°C 72.3°F22.4°C 55% 4.1 mph WNW6.6 kmh WNW 9.0 mph14.5 kmh 29.88 in1011.9 mb 0.00 in0.0 mm 0.00 in0.0 mm 0.00 in0.0 mm
06:59 PM 90.1°F32.3°C 72.0°F22.2°C 55% 3.0 mph WNW4.8 kmh WNW 9.0 mph14.5 kmh 29.88 in1011.9 mb 0.00 in0.0 mm 0.00 in0.0 mm 0.00 in0.0 mm
07:04 PM 89.8°F32.1°C 72.3°F22.4°C 56% 2.4 mph WNW3.9 kmh WNW 9.0 mph14.5 kmh 29.88 in1011.9 mb 0.00 in0.0 mm 0.00 in0.0 mm 0.00 in0.0 mm
07:09 PM 89.5°F31.9°C 72.5°F22.5°C 57% 1.2 mph W1.9 kmh W 9.0 mph14.5 kmh 29.88 in1011.9 mb 0.00 in0.0 mm 0.00 in0.0 mm 0.00 in0.0 mm
07:14 PM 89.3°F31.8°C 72.6°F22.6°C 58% 1.1 mph W1.8 kmh W 6.0 mph9.7 kmh 29.88 in1011.9 mb 0.00 in0.0 mm 0.00 in0.0 mm 0.00 in0.0 mm
07:19 PM 89.1°F31.7°C 72.7°F22.6°C 58% 1.3 mph NW2.1 kmh NW 4.0 mph6.4 kmh 29.88 in1011.9 mb 0.00 in0.0 mm 0.00 in0.0 mm 0.00 in0.0 mm
07:24 PM 88.8°F31.6°C 72.6°F22.6°C 59% 1.8 mph WNW2.9 kmh WNW 4.0 mph6.4 kmh 29.88 in1011.9 mb 0.00 in0.0 mm 0.00 in0.0 mm 0.00 in0.0 mm
07:29 PM 88.5°F31.4°C 72.6°F22.6°C 59% 1.7 mph SW2.7 kmh SW 4.0 mph6.4 kmh 29.89 in1012.2 mb 0.00 in0.0 mm 0.00 in0.0 mm 0.00 in0.0 mm
07:34 PM 87.7°F30.9°C 73.4°F23.0°C 62% 2.7 mph WSW4.3 kmh WSW 10.0 mph16.1 kmh 29.89 in1012.2 mb 0.00 in0.0 mm 0.00 in0.0 mm 0.00 in0.0 mm
07:39 PM 86.7°F30.4°C 73.8°F23.2°C 65% 1.7 mph WSW2.7 kmh WSW 10.0 mph16.1 kmh 29.89 in1012.2 mb 0.00 in0.0 mm 0.00 in0.0 mm 0.00 in0.0 mm
07:44 PM 85.9°F29.9°C 73.9°F23.3°C 67% 3.8 mph SW6.1 kmh SW 12.0 mph19.3 kmh 29.89 in1012.2 mb 0.00 in0.0 mm 0.00 in0.0 mm 0.00 in0.0 mm
07:49 PM 85.2°F29.6°C 73.4°F23.0°C 68% 3.2 mph SW5.1 kmh SW 12.0 mph19.3 kmh 29.89 in1012.2 mb 0.00 in0.0 mm 0.00 in0.0 mm 0.00 in0.0 mm
07:54 PM 84.6°F29.2°C 73.6°F23.1°C 69% 2.8 mph WSW4.5 kmh WSW 12.0 mph19.3 kmh 29.89 in1012.2 mb 0.00 in0.0 mm 0.00 in0.0 mm 0.00 in0.0 mm
07:59 PM 84.2°F29.0°C 73.2°F22.9°C 69% 2.1 mph WSW3.4 kmh WSW 12.0 mph19.3 kmh 29.90 in1012.5 mb 0.00 in0.0 mm 0.00 in0.0 mm 0.00 in0.0 mm
08:04 PM 83.7°F28.7°C 73.1°F22.8°C 70% 3.8 mph WSW6.1 kmh WSW 10.0 mph16.1 kmh 29.90 in1012.5 mb 0.00 in0.0 mm 0.00 in0.0 mm 0.00 in0.0 mm
08:09 PM 83.3°F28.5°C 73.1°F22.8°C 71% 3.5 mph WSW5.6 kmh WSW 10.0 mph16.1 kmh 29.90 in1012.5 mb 0.00 in0.0 mm 0.00 in0.0 mm 0.00 in0.0 mm
08:14 PM 83.0°F28.3°C 72.9°F22.7°C 71% 2.4 mph W3.9 kmh W 10.0 mph16.1 kmh 29.90 in1012.5 mb 0.00 in0.0 mm 0.00 in0.0 mm 0.00 in0.0 mm
08:19 PM 82.7°F28.2°C 72.2°F22.3°C 70% 2.3 mph W3.7 kmh W 11.0 mph17.7 kmh 29.90 in1012.5 mb 0.00 in0.0 mm 0.00 in0.0 mm 0.00 in0.0 mm
08:24 PM 82.5°F28.1°C 71.7°F22.1°C 70% 3.1 mph W5.0 kmh W 11.0 mph17.7 kmh 29.90 in1012.5 mb 0.00 in0.0 mm 0.00 in0.0 mm 0.00 in0.0 mm
08:29 PM 82.3°F27.9°C 72.2°F22.3°C 71% 3.2 mph WSW5.1 kmh WSW 11.0 mph17.7 kmh 29.91 in1012.9 mb 0.00 in0.0 mm 0.00 in0.0 mm 0.00 in0.0 mm
08:34 PM 82.1°F27.8°C 72.0°F22.2°C 71% 1.8 mph W2.9 kmh W 11.0 mph17.7 kmh 29.91 in1012.9 mb 0.00 in0.0 mm 0.00 in0.0 mm 0.00 in0.0 mm
08:39 PM 81.9°F27.7°C 72.2°F22.3°C 72% 2.7 mph W4.3 kmh W 9.0 mph14.5 kmh 29.90 in1012.5 mb 0.00 in0.0 mm 0.00 in0.0 mm 0.00 in0.0 mm
08:44 PM 81.7°F27.6°C 72.0°F22.2°C 72% 1.4 mph WSW2.3 kmh WSW 9.0 mph14.5 kmh 29.90 in1012.5 mb 0.00 in0.0 mm 0.00 in0.0 mm 0.00 in0.0 mm
08:49 PM 81.6°F27.6°C 72.3°F22.4°C 73% 1.4 mph W2.3 kmh W 9.0 mph14.5 kmh 29.91 in1012.9 mb 0.00 in0.0 mm 0.00 in0.0 mm 0.00 in0.0 mm
08:54 PM 81.4°F27.4°C 71.9°F22.2°C 73% 2.4 mph WSW3.9 kmh WSW 7.0 mph11.3 kmh 29.90 in1012.5 mb 0.00 in0.0 mm 0.00 in0.0 mm 0.00 in0.0 mm
08:59 PM 81.3°F27.4°C 72.0°F22.2°C 73% 2.2 mph WSW3.5 kmh WSW 7.0 mph11.3 kmh 29.91 in1012.9 mb 0.00 in0.0 mm 0.00 in0.0 mm 0.00 in0.0 mm
09:04 PM 81.2°F27.3°C 72.3°F22.4°C 74% 2.8 mph WSW4.5 kmh WSW 7.0 mph11.3 kmh 29.90 in1012.5 mb 0.00 in0.0 mm 0.00 in0.0 mm 0.00 in0.0 mm
09:09 PM 81.0°F27.2°C 72.1°F22.3°C 74% 1.2 mph WSW1.9 kmh WSW 7.0 mph11.3 kmh 29.90 in1012.5 mb 0.00 in0.0 mm 0.00 in0.0 mm 0.00 in0.0 mm
09:14 PM 80.8°F27.1°C 71.9°F22.2°C 74% 1.8 mph WSW2.9 kmh WSW 7.0 mph11.3 kmh 29.90 in1012.5 mb 0.00 in0.0 mm 0.00 in0.0 mm 0.00 in0.0 mm
09:19 PM 80.7°F27.1°C 72.2°F22.3°C 75% 2.3 mph WSW3.7 kmh WSW 7.0 mph11.3 kmh 29.90 in1012.5 mb 0.00 in0.0 mm 0.00 in0.0 mm 0.00 in0.0 mm
09:24 PM 80.7°F27.1°C 72.2°F22.3°C 75% 2.0 mph W3.2 kmh W 5.0 mph8.0 kmh 29.91 in1012.9 mb 0.00 in0.0 mm 0.00 in0.0 mm 0.00 in0.0 mm
09:29 PM 80.6°F27.0°C 72.1°F22.3°C 75% 2.0 mph W3.2 kmh W 5.0 mph8.0 kmh 29.91 in1012.9 mb 0.00 in0.0 mm 0.00 in0.0 mm 0.00 in0.0 mm
09:34 PM 80.6°F27.0°C 72.1°F22.3°C 75% 1.7 mph WSW2.7 kmh WSW 4.0 mph6.4 kmh 29.91 in1012.9 mb 0.00 in0.0 mm 0.00 in0.0 mm 0.00 in0.0 mm
09:39 PM 80.5°F26.9°C 72.2°F22.3°C 76% 1.1 mph W1.8 kmh W 5.0 mph8.0 kmh 29.91 in1012.9 mb 0.00 in0.0 mm 0.00 in0.0 mm 0.00 in0.0 mm
09:44 PM 80.5°F26.9°C 72.4°F22.4°C 76% 1.7 mph W2.7 kmh W 5.0 mph8.0 kmh 29.92 in1013.2 mb 0.00 in0.0 mm 0.00 in0.0 mm 0.00 in0.0 mm
09:49 PM 80.4°F26.9°C 72.3°F22.4°C 76% 1.4 mph W2.3 kmh W 5.0 mph8.0 kmh 29.91 in1012.9 mb 0.00 in0.0 mm 0.00 in0.0 mm 0.00 in0.0 mm
09:54 PM 80.3°F26.8°C 72.2°F22.3°C 76% 1.5 mph WSW2.4 kmh WSW 5.0 mph8.0 kmh 29.91 in1012.9 mb 0.00 in0.0 mm 0.00 in0.0 mm 0.00 in0.0 mm
09:59 PM 80.2°F26.8°C 72.5°F22.5°C 77% 1.8 mph WSW2.9 kmh WSW 5.0 mph8.0 kmh 29.92 in1013.2 mb 0.00 in0.0 mm 0.00 in0.0 mm 0.00 in0.0 mm
10:04 PM 80.0°F26.7°C 72.3°F22.4°C 77% 1.8 mph W2.9 kmh W 5.0 mph8.0 kmh 29.92 in1013.2 mb 0.00 in0.0 mm 0.00 in0.0 mm 0.00 in0.0 mm
10:09 PM 79.8°F26.6°C 72.5°F22.5°C 78% 1.8 mph WSW2.9 kmh WSW 5.0 mph8.0 kmh 29.92 in1013.2 mb 0.00 in0.0 mm 0.00 in0.0 mm 0.00 in0.0 mm
10:14 PM 79.6°F26.4°C 72.1°F22.3°C 78% 1.6 mph W2.6 kmh W 6.0 mph9.7 kmh 29.92 in1013.2 mb 0.00 in0.0 mm 0.00 in0.0 mm 0.00 in0.0 mm
10:19 PM 79.5°F26.4°C 72.2°F22.3°C 78% 2.5 mph WSW4.0 kmh WSW 6.0 mph9.7 kmh 29.92 in1013.2 mb 0.00 in0.0 mm 0.00 in0.0 mm 0.00 in0.0 mm
10:24 PM 79.4°F26.3°C 72.4°F22.4°C 79% 2.5 mph WSW4.0 kmh WSW 6.0 mph9.7 kmh 29.92 in1013.2 mb 0.00 in0.0 mm 0.00 in0.0 mm 0.00 in0.0 mm
10:30 PM 79.3°F26.3°C 72.3°F22.4°C 79% 2.3 mph WSW3.7 kmh WSW 6.0 mph9.7 kmh 29.92 in1013.2 mb 0.00 in0.0 mm 0.00 in0.0 mm 0.00 in0.0 mm
10:34 PM 79.2°F26.2°C 72.2°F22.3°C 79% 1.8 mph W2.9 kmh W 6.0 mph9.7 kmh 29.92 in1013.2 mb 0.00 in0.0 mm 0.00 in0.0 mm 0.00 in0.0 mm
10:39 PM 79.2°F26.2°C 72.2°F22.3°C 79% 2.0 mph WSW3.2 kmh WSW 6.0 mph9.7 kmh 29.91 in1012.9 mb 0.00 in0.0 mm 0.00 in0.0 mm 0.00 in0.0 mm
10:45 PM 79.0°F26.1°C 72.4°F22.4°C 80% 1.6 mph W2.6 kmh W 6.0 mph9.7 kmh 29.91 in1012.9 mb 0.00 in0.0 mm 0.00 in0.0 mm 0.00 in0.0 mm
10:50 PM 79.0°F26.1°C 72.4°F22.4°C 80% 1.7 mph WSW2.7 kmh WSW 5.0 mph8.0 kmh 29.91 in1012.9 mb 0.00 in0.0 mm 0.00 in0.0 mm 0.00 in0.0 mm
10:55 PM 78.9°F26.1°C 72.3°F22.4°C 80% 1.7 mph WSW2.7 kmh WSW 5.0 mph8.0 kmh 29.91 in1012.9 mb 0.00 in0.0 mm 0.00 in0.0 mm 0.00 in0.0 mm
10:59 PM 78.8°F26.0°C 72.5°F22.5°C 81% 2.1 mph WSW3.4 kmh WSW 4.0 mph6.4 kmh 29.91 in1012.9 mb 0.00 in0.0 mm 0.00 in0.0 mm 0.00 in0.0 mm
11:05 PM 78.6°F25.9°C 72.4°F22.4°C 81% 1.0 mph WSW1.6 kmh WSW 6.0 mph9.7 kmh 29.91 in1012.9 mb 0.00 in0.0 mm 0.00 in0.0 mm 0.00 in0.0 mm
11:10 PM 78.6°F25.9°C 72.4°F22.4°C 81% 2.3 mph W3.7 kmh W 6.0 mph9.7 kmh 29.91 in1012.9 mb 0.00 in0.0 mm 0.00 in0.0 mm 0.00 in0.0 mm
11:15 PM 78.5°F25.8°C 72.3°F22.4°C 81% 2.1 mph W3.4 kmh W 6.0 mph9.7 kmh 29.91 in1012.9 mb 0.00 in0.0 mm 0.00 in0.0 mm 0.00 in0.0 mm
11:20 PM 78.5°F25.8°C 72.6°F22.6°C 82% 2.1 mph WSW3.4 kmh WSW 5.0 mph8.0 kmh 29.91 in1012.9 mb 0.00 in0.0 mm 0.00 in0.0 mm 0.00 in0.0 mm
11:25 PM 78.3°F25.7°C 72.3°F22.4°C 82% 1.8 mph WSW2.9 kmh WSW 6.0 mph9.7 kmh 29.91 in1012.9 mb 0.00 in0.0 mm 0.00 in0.0 mm 0.00 in0.0 mm
11:30 PM 78.2°F25.7°C 72.7°F22.6°C 83% 2.3 mph W3.7 kmh W 6.0 mph9.7 kmh 29.91 in1012.9 mb 0.00 in0.0 mm 0.00 in0.0 mm 0.00 in0.0 mm
11:35 PM 78.1°F25.6°C 72.6°F22.6°C 83% 1.2 mph WSW1.9 kmh WSW 6.0 mph9.7 kmh 29.91 in1012.9 mb 0.00 in0.0 mm 0.00 in0.0 mm 0.00 in0.0 mm
11:40 PM 77.8°F25.4°C 72.3°F22.4°C 83% 1.2 mph WSW1.9 kmh WSW 6.0 mph9.7 kmh 29.91 in1012.9 mb 0.00 in0.0 mm 0.00 in0.0 mm 0.00 in0.0 mm
11:45 PM 77.6°F25.3°C 72.4°F22.4°C 84% 1.1 mph W1.8 kmh W 4.0 mph6.4 kmh 29.91 in1012.9 mb 0.00 in0.0 mm 0.00 in0.0 mm 0.00 in0.0 mm
11:50 PM 77.4°F25.2°C 72.2°F22.3°C 84% 1.0 mph WSW1.6 kmh WSW 2.0 mph3.2 kmh 29.92 in1013.2 mb 0.00 in0.0 mm 0.00 in0.0 mm 0.00 in0.0 mm
11:55 PM 77.3°F25.2°C 72.5°F22.5°C 85% 1.6 mph WSW2.6 kmh WSW 4.0 mph6.4 kmh 29.92 in1013.2 mb 0.00 in0.0 mm 0.00 in0.0 mm 0.00 in0.0 mm